sensor_id;sensor_type;location;lat;lon;timestamp;temperature;humidity
37842;DHT22;23682;53.508;10.476;2022-09-29T00:01:14;6.90;99.90
37842;DHT22;23682;53.508;10.476;2022-09-29T00:03:44;6.90;99.90
37842;DHT22;23682;53.508;10.476;2022-09-29T00:06:14;6.90;99.90
37842;DHT22;23682;53.508;10.476;2022-09-29T00:08:44;6.90;99.90
37842;DHT22;23682;53.508;10.476;2022-09-29T00:11:15;6.90;99.90
37842;DHT22;23682;53.508;10.476;2022-09-29T00:13:43;6.90;99.90
37842;DHT22;23682;53.508;10.476;2022-09-29T00:16:10;6.90;99.90
37842;DHT22;23682;53.508;10.476;2022-09-29T00:18:38;6.90;99.90
37842;DHT22;23682;53.508;10.476;2022-09-29T00:21:07;6.80;99.90
37842;DHT22;23682;53.508;10.476;2022-09-29T00:23:35;6.80;99.90
37842;DHT22;23682;53.508;10.476;2022-09-29T00:26:09;6.80;99.90
37842;DHT22;23682;53.508;10.476;2022-09-29T00:28:38;6.80;99.90
37842;DHT22;23682;53.508;10.476;2022-09-29T00:31:07;6.80;99.90
37842;DHT22;23682;53.508;10.476;2022-09-29T00:33:36;6.80;99.90
37842;DHT22;23682;53.508;10.476;2022-09-29T00:36:09;6.80;99.90
37842;DHT22;23682;53.508;10.476;2022-09-29T00:38:39;6.70;99.90
37842;DHT22;23682;53.508;10.476;2022-09-29T00:41:07;6.70;99.90
37842;DHT22;23682;53.508;10.476;2022-09-29T00:47:02;6.70;99.90
37842;DHT22;23682;53.508;10.476;2022-09-29T00:49:41;6.60;99.90
37842;DHT22;23682;53.508;10.476;2022-09-29T00:52:24;6.60;99.90
37842;DHT22;23682;53.508;10.476;2022-09-29T00:54:55;6.60;99.90
37842;DHT22;23682;53.508;10.476;2022-09-29T00:57:36;6.60;99.90
37842;DHT22;23682;53.508;10.476;2022-09-29T01:00:10;6.60;99.90
37842;DHT22;23682;53.508;10.476;2022-09-29T01:02:52;6.50;99.90
37842;DHT22;23682;53.508;10.476;2022-09-29T01:05:24;6.50;99.90
37842;DHT22;23682;53.508;10.476;2022-09-29T01:07:55;6.50;99.90
37842;DHT22;23682;53.508;10.476;2022-09-29T01:10:25;6.50;99.90
37842;DHT22;23682;53.508;10.476;2022-09-29T01:12:55;6.50;99.90
37842;DHT22;23682;53.508;10.476;2022-09-29T01:15:25;6.50;99.90
37842;DHT22;23682;53.508;10.476;2022-09-29T01:17:53;6.40;99.90
37842;DHT22;23682;53.508;10.476;2022-09-29T01:20:21;6.50;99.90
37842;DHT22;23682;53.508;10.476;2022-09-29T01:25:47;6.40;99.90
37842;DHT22;23682;53.508;10.476;2022-09-29T01:33:31;6.40;99.90
37842;DHT22;23682;53.508;10.476;2022-09-29T01:39:23;6.40;99.90
37842;DHT22;23682;53.508;10.476;2022-09-29T01:42:02;6.40;99.90
37842;DHT22;23682;53.508;10.476;2022-09-29T01:44:36;6.40;99.90
37842;DHT22;23682;53.508;10.476;2022-09-29T01:47:34;6.30;99.90
37842;DHT22;23682;53.508;10.476;2022-09-29T01:50:07;6.30;99.90
37842;DHT22;23682;53.508;10.476;2022-09-29T01:52:43;6.30;99.90
37842;DHT22;23682;53.508;10.476;2022-09-29T01:55:16;6.30;99.90
37842;DHT22;23682;53.508;10.476;2022-09-29T01:57:59;6.30;99.90
37842;DHT22;23682;53.508;10.476;2022-09-29T02:00:38;6.20;99.90
37842;DHT22;23682;53.508;10.476;2022-09-29T02:03:40;6.30;99.90
37842;DHT22;23682;53.508;10.476;2022-09-29T02:06:25;6.20;99.90
37842;DHT22;23682;53.508;10.476;2022-09-29T02:08:55;6.20;99.90
37842;DHT22;23682;53.508;10.476;2022-09-29T02:11:26;6.20;99.90
37842;DHT22;23682;53.508;10.476;2022-09-29T02:13:58;6.20;99.90
37842;DHT22;23682;53.508;10.476;2022-09-29T02:16:31;6.20;99.90
37842;DHT22;23682;53.508;10.476;2022-09-29T02:19:15;6.20;99.90
37842;DHT22;23682;53.508;10.476;2022-09-29T02:21:44;6.20;99.90
37842;DHT22;23682;53.508;10.476;2022-09-29T02:24:11;6.20;99.90
37842;DHT22;23682;53.508;10.476;2022-09-29T02:26:42;6.20;99.90
37842;DHT22;23682;53.508;10.476;2022-09-29T02:29:13;6.20;99.90
37842;DHT22;23682;53.508;10.476;2022-09-29T02:31:41;6.20;99.90
37842;DHT22;23682;53.508;10.476;2022-09-29T02:34:12;6.20;99.90
37842;DHT22;23682;53.508;10.476;2022-09-29T02:39:47;6.20;99.90
37842;DHT22;23682;53.508;10.476;2022-09-29T02:48:11;6.10;99.90
37842;DHT22;23682;53.508;10.476;2022-09-29T02:51:11;6.10;99.90
37842;DHT22;23682;53.508;10.476;2022-09-29T02:54:12;6.20;99.90
37842;DHT22;23682;53.508;10.476;2022-09-29T03:02:27;6.10;99.90
37842;DHT22;23682;53.508;10.476;2022-09-29T03:04:54;6.10;99.90
37842;DHT22;23682;53.508;10.476;2022-09-29T03:07:21;6.20;99.90
37842;DHT22;23682;53.508;10.476;2022-09-29T03:09:48;6.10;99.90
37842;DHT22;23682;53.508;10.476;2022-09-29T03:12:15;6.10;99.90
37842;DHT22;23682;53.508;10.476;2022-09-29T03:14:43;6.10;99.90
37842;DHT22;23682;53.508;10.476;2022-09-29T03:17:10;6.10;99.90
37842;DHT22;23682;53.508;10.476;2022-09-29T03:19:37;6.10;99.90
37842;DHT22;23682;53.508;10.476;2022-09-29T03:22:04;6.10;99.90
37842;DHT22;23682;53.508;10.476;2022-09-29T03:24:31;6.10;99.90
37842;DHT22;23682;53.508;10.476;2022-09-29T03:26:58;6.10;99.90
37842;DHT22;23682;53.508;10.476;2022-09-29T03:29:25;6.00;99.90
37842;DHT22;23682;53.508;10.476;2022-09-29T03:31:52;6.10;99.90
37842;DHT22;23682;53.508;10.476;2022-09-29T03:34:21;6.10;99.90
37842;DHT22;23682;53.508;10.476;2022-09-29T03:36:48;6.10;99.90
37842;DHT22;23682;53.508;10.476;2022-09-29T03:39:15;6.10;99.90
37842;DHT22;23682;53.508;10.476;2022-09-29T03:41:41;6.10;99.90
37842;DHT22;23682;53.508;10.476;2022-09-29T03:44:09;6.10;99.90
37842;DHT22;23682;53.508;10.476;2022-09-29T03:46:38;6.10;99.90
37842;DHT22;23682;53.508;10.476;2022-09-29T03:49:05;6.00;99.90
37842;DHT22;23682;53.508;10.476;2022-09-29T03:51:32;6.10;99.90
37842;DHT22;23682;53.508;10.476;2022-09-29T03:53:59;6.00;99.90
37842;DHT22;23682;53.508;10.476;2022-09-29T03:56:28;6.00;99.90
37842;DHT22;23682;53.508;10.476;2022-09-29T03:58:56;6.00;99.90
37842;DHT22;23682;53.508;10.476;2022-09-29T04:01:23;6.00;99.90
37842;DHT22;23682;53.508;10.476;2022-09-29T04:03:50;6.00;99.90
37842;DHT22;23682;53.508;10.476;2022-09-29T04:06:17;6.10;99.90
37842;DHT22;23682;53.508;10.476;2022-09-29T04:08:44;6.10;99.90
37842;DHT22;23682;53.508;10.476;2022-09-29T04:11:11;6.10;99.90
37842;DHT22;23682;53.508;10.476;2022-09-29T04:13:38;6.10;99.90
37842;DHT22;23682;53.508;10.476;2022-09-29T04:16:07;6.10;99.90
37842;DHT22;23682;53.508;10.476;2022-09-29T04:18:36;6.10;99.90
37842;DHT22;23682;53.508;10.476;2022-09-29T04:21:06;6.10;99.90
37842;DHT22;23682;53.508;10.476;2022-09-29T04:23:34;6.10;99.90
37842;DHT22;23682;53.508;10.476;2022-09-29T04:26:02;6.10;99.90
37842;DHT22;23682;53.508;10.476;2022-09-29T04:28:34;6.10;99.90
37842;DHT22;23682;53.508;10.476;2022-09-29T04:31:04;6.10;99.90
37842;DHT22;23682;53.508;10.476;2022-09-29T04:33:32;6.10;99.90
37842;DHT22;23682;53.508;10.476;2022-09-29T04:35:59;6.10;99.90
37842;DHT22;23682;53.508;10.476;2022-09-29T04:38:26;6.10;99.90
37842;DHT22;23682;53.508;10.476;2022-09-29T04:40:53;6.00;99.90
37842;DHT22;23682;53.508;10.476;2022-09-29T04:43:20;6.10;99.90
37842;DHT22;23682;53.508;10.476;2022-09-29T04:45:47;6.10;99.90
37842;DHT22;23682;53.508;10.476;2022-09-29T04:48:14;6.10;99.90
37842;DHT22;23682;53.508;10.476;2022-09-29T04:50:41;6.10;99.90
37842;DHT22;23682;53.508;10.476;2022-09-29T04:53:10;6.10;99.90
37842;DHT22;23682;53.508;10.476;2022-09-29T04:55:37;6.10;99.90
37842;DHT22;23682;53.508;10.476;2022-09-29T04:58:05;6.10;99.90
37842;DHT22;23682;53.508;10.476;2022-09-29T05:00:33;6.10;99.90
37842;DHT22;23682;53.508;10.476;2022-09-29T05:03:02;6.20;99.90
37842;DHT22;23682;53.508;10.476;2022-09-29T05:05:31;6.20;99.90
37842;DHT22;23682;53.508;10.476;2022-09-29T05:07:58;6.20;99.90
37842;DHT22;23682;53.508;10.476;2022-09-29T05:10:25;6.20;99.90
37842;DHT22;23682;53.508;10.476;2022-09-29T05:12:52;6.20;99.90
37842;DHT22;23682;53.508;10.476;2022-09-29T05:15:19;6.20;99.90
37842;DHT22;23682;53.508;10.476;2022-09-29T05:17:51;6.30;99.90
37842;DHT22;23682;53.508;10.476;2022-09-29T05:20:18;6.30;99.90
37842;DHT22;23682;53.508;10.476;2022-09-29T05:22:48;6.30;99.90
37842;DHT22;23682;53.508;10.476;2022-09-29T05:25:15;6.30;99.90
37842;DHT22;23682;53.508;10.476;2022-09-29T05:27:43;6.30;99.90
37842;DHT22;23682;53.508;10.476;2022-09-29T05:30:10;6.30;99.90
37842;DHT22;23682;53.508;10.476;2022-09-29T05:32:37;6.40;99.90
37842;DHT22;23682;53.508;10.476;2022-09-29T05:35:07;6.40;99.90
37842;DHT22;23682;53.508;10.476;2022-09-29T05:37:34;6.40;99.90
37842;DHT22;23682;53.508;10.476;2022-09-29T05:40:01;6.50;99.90
37842;DHT22;23682;53.508;10.476;2022-09-29T05:42:27;6.60;99.90
37842;DHT22;23682;53.508;10.476;2022-09-29T05:44:54;6.60;99.90
37842;DHT22;23682;53.508;10.476;2022-09-29T05:47:26;6.60;99.90
37842;DHT22;23682;53.508;10.476;2022-09-29T05:49:53;6.80;99.90
37842;DHT22;23682;53.508;10.476;2022-09-29T05:52:23;6.80;99.90
37842;DHT22;23682;53.508;10.476;2022-09-29T05:54:50;6.90;99.90
37842;DHT22;23682;53.508;10.476;2022-09-29T05:57:18;7.00;99.90
37842;DHT22;23682;53.508;10.476;2022-09-29T05:59:44;7.20;99.90
37842;DHT22;23682;53.508;10.476;2022-09-29T06:02:14;7.20;99.90
37842;DHT22;23682;53.508;10.476;2022-09-29T06:04:42;7.30;99.90
37842;DHT22;23682;53.508;10.476;2022-09-29T06:07:09;7.50;99.90
37842;DHT22;23682;53.508;10.476;2022-09-29T06:09:38;7.60;99.90
37842;DHT22;23682;53.508;10.476;2022-09-29T06:12:08;7.70;99.90
37842;DHT22;23682;53.508;10.476;2022-09-29T06:14:35;7.90;99.90
37842;DHT22;23682;53.508;10.476;2022-09-29T06:17:04;8.00;99.90
37842;DHT22;23682;53.508;10.476;2022-09-29T06:19:31;8.10;99.90
37842;DHT22;23682;53.508;10.476;2022-09-29T06:21:58;8.20;99.90
37842;DHT22;23682;53.508;10.476;2022-09-29T06:24:25;8.10;99.90
37842;DHT22;23682;53.508;10.476;2022-09-29T06:26:52;8.20;99.90
37842;DHT22;23682;53.508;10.476;2022-09-29T06:29:21;8.20;99.90
37842;DHT22;23682;53.508;10.476;2022-09-29T06:31:51;8.20;99.90
37842;DHT22;23682;53.508;10.476;2022-09-29T06:34:19;8.40;99.90
37842;DHT22;23682;53.508;10.476;2022-09-29T06:36:46;8.30;99.90
37842;DHT22;23682;53.508;10.476;2022-09-29T06:39:39;8.30;99.90
37842;DHT22;23682;53.508;10.476;2022-09-29T06:42:13;8.50;99.90
37842;DHT22;23682;53.508;10.476;2022-09-29T06:44:40;8.80;99.90
37842;DHT22;23682;53.508;10.476;2022-09-29T06:47:07;8.90;99.90
37842;DHT22;23682;53.508;10.476;2022-09-29T06:49:34;9.00;99.90
37842;DHT22;23682;53.508;10.476;2022-09-29T06:52:01;9.00;99.90
37842;DHT22;23682;53.508;10.476;2022-09-29T06:54:44;9.20;99.90
37842;DHT22;23682;53.508;10.476;2022-09-29T06:57:16;9.10;99.90
37842;DHT22;23682;53.508;10.476;2022-09-29T06:59:44;9.20;99.90
37842;DHT22;23682;53.508;10.476;2022-09-29T07:02:11;9.50;99.90
37842;DHT22;23682;53.508;10.476;2022-09-29T07:04:41;9.50;99.90
37842;DHT22;23682;53.508;10.476;2022-09-29T07:07:14;9.70;99.90
37842;DHT22;23682;53.508;10.476;2022-09-29T07:09:44;9.60;99.90
37842;DHT22;23682;53.508;10.476;2022-09-29T07:12:11;9.50;99.90
37842;DHT22;23682;53.508;10.476;2022-09-29T07:14:38;9.60;99.90
37842;DHT22;23682;53.508;10.476;2022-09-29T07:17:05;9.60;99.90
37842;DHT22;23682;53.508;10.476;2022-09-29T07:19:32;9.80;99.90
37842;DHT22;23682;53.508;10.476;2022-09-29T07:22:02;10.00;99.90
37842;DHT22;23682;53.508;10.476;2022-09-29T07:24:30;10.10;99.90
37842;DHT22;23682;53.508;10.476;2022-09-29T07:26:57;10.20;99.90
37842;DHT22;23682;53.508;10.476;2022-09-29T07:29:24;10.20;99.90
37842;DHT22;23682;53.508;10.476;2022-09-29T07:31:51;10.40;99.90
37842;DHT22;23682;53.508;10.476;2022-09-29T07:34:20;10.40;99.90
37842;DHT22;23682;53.508;10.476;2022-09-29T07:36:47;10.50;99.90
37842;DHT22;23682;53.508;10.476;2022-09-29T07:39:14;10.60;99.90
37842;DHT22;23682;53.508;10.476;2022-09-29T07:41:41;10.70;99.90
37842;DHT22;23682;53.508;10.476;2022-09-29T07:44:08;10.70;99.90
37842;DHT22;23682;53.508;10.476;2022-09-29T07:46:35;10.70;99.90
37842;DHT22;23682;53.508;10.476;2022-09-29T07:49:05;10.80;99.90
37842;DHT22;23682;53.508;10.476;2022-09-29T07:51:34;11.00;99.90
37842;DHT22;23682;53.508;10.476;2022-09-29T07:54:03;11.00;99.90
37842;DHT22;23682;53.508;10.476;2022-09-29T07:56:33;11.00;99.90
37842;DHT22;23682;53.508;10.476;2022-09-29T07:59:01;11.10;99.90
37842;DHT22;23682;53.508;10.476;2022-09-29T08:01:28;11.20;99.90
37842;DHT22;23682;53.508;10.476;2022-09-29T08:03:56;11.30;99.90
37842;DHT22;23682;53.508;10.476;2022-09-29T08:06:26;11.20;99.90
37842;DHT22;23682;53.508;10.476;2022-09-29T08:08:53;11.30;99.90
37842;DHT22;23682;53.508;10.476;2022-09-29T08:11:32;11.30;99.90
37842;DHT22;23682;53.508;10.476;2022-09-29T08:14:02;11.40;99.90
37842;DHT22;23682;53.508;10.476;2022-09-29T08:16:34;11.50;99.90
37842;DHT22;23682;53.508;10.476;2022-09-29T08:19:02;11.60;99.90
37842;DHT22;23682;53.508;10.476;2022-09-29T08:21:30;11.70;99.90
37842;DHT22;23682;53.508;10.476;2022-09-29T08:24:03;11.60;99.90
37842;DHT22;23682;53.508;10.476;2022-09-29T08:26:33;11.80;99.90
37842;DHT22;23682;53.508;10.476;2022-09-29T08:29:11;11.80;99.90
37842;DHT22;23682;53.508;10.476;2022-09-29T08:31:43;11.90;99.90
37842;DHT22;23682;53.508;10.476;2022-09-29T08:34:14;11.70;99.90
37842;DHT22;23682;53.508;10.476;2022-09-29T08:36:41;11.80;99.90
37842;DHT22;23682;53.508;10.476;2022-09-29T08:39:11;11.70;99.90
37842;DHT22;23682;53.508;10.476;2022-09-29T08:44:33;11.70;99.90
37842;DHT22;23682;53.508;10.476;2022-09-29T08:50:29;11.80;99.90
37842;DHT22;23682;53.508;10.476;2022-09-29T08:53:01;11.80;99.90
37842;DHT22;23682;53.508;10.476;2022-09-29T08:55:56;11.70;99.90
37842;DHT22;23682;53.508;10.476;2022-09-29T08:58:26;11.70;99.90
37842;DHT22;23682;53.508;10.476;2022-09-29T09:06:35;12.10;99.90
37842;DHT22;23682;53.508;10.476;2022-09-29T09:20:30;12.50;99.90
37842;DHT22;23682;53.508;10.476;2022-09-29T09:23:00;12.60;99.90
37842;DHT22;23682;53.508;10.476;2022-09-29T09:25:36;12.70;99.90
37842;DHT22;23682;53.508;10.476;2022-09-29T09:28:15;12.70;99.90
37842;DHT22;23682;53.508;10.476;2022-09-29T09:33:57;13.00;99.90
37842;DHT22;23682;53.508;10.476;2022-09-29T09:37:04;13.00;99.90
37842;DHT22;23682;53.508;10.476;2022-09-29T09:42:35;13.10;99.90
37842;DHT22;23682;53.508;10.476;2022-09-29T09:45:25;13.00;99.90
37842;DHT22;23682;53.508;10.476;2022-09-29T09:48:27;13.10;99.90
37842;DHT22;23682;53.508;10.476;2022-09-29T09:51:00;13.10;99.90
37842;DHT22;23682;53.508;10.476;2022-09-29T09:53:42;13.10;99.90
37842;DHT22;23682;53.508;10.476;2022-09-29T10:01:54;13.40;99.90
37842;DHT22;23682;53.508;10.476;2022-09-29T10:04:21;13.60;99.90
37842;DHT22;23682;53.508;10.476;2022-09-29T10:06:52;13.70;99.90
37842;DHT22;23682;53.508;10.476;2022-09-29T10:09:19;13.60;99.90
37842;DHT22;23682;53.508;10.476;2022-09-29T10:11:56;13.60;99.90
37842;DHT22;23682;53.508;10.476;2022-09-29T10:14:25;13.60;99.90
37842;DHT22;23682;53.508;10.476;2022-09-29T10:17:08;13.60;99.90
37842;DHT22;23682;53.508;10.476;2022-09-29T10:19:57;13.80;99.90
37842;DHT22;23682;53.508;10.476;2022-09-29T10:22:31;14.00;99.90
37842;DHT22;23682;53.508;10.476;2022-09-29T10:25:17;14.20;99.90
37842;DHT22;23682;53.508;10.476;2022-09-29T10:27:52;14.30;99.90
37842;DHT22;23682;53.508;10.476;2022-09-29T10:30:37;14.30;99.90
37842;DHT22;23682;53.508;10.476;2022-09-29T10:33:16;14.50;99.90
37842;DHT22;23682;53.508;10.476;2022-09-29T10:35:50;14.40;99.90
37842;DHT22;23682;53.508;10.476;2022-09-29T10:38:30;14.70;99.90
37842;DHT22;23682;53.508;10.476;2022-09-29T10:41:03;14.70;99.90
37842;DHT22;23682;53.508;10.476;2022-09-29T10:43:45;14.70;99.90
37842;DHT22;23682;53.508;10.476;2022-09-29T10:46:34;14.50;99.90
37842;DHT22;23682;53.508;10.476;2022-09-29T10:49:24;14.50;99.90
37842;DHT22;23682;53.508;10.476;2022-09-29T10:51:57;14.50;99.90
37842;DHT22;23682;53.508;10.476;2022-09-29T10:54:28;14.50;99.90
37842;DHT22;23682;53.508;10.476;2022-09-29T10:56:56;14.60;99.90
37842;DHT22;23682;53.508;10.476;2022-09-29T10:59:25;14.60;99.90
37842;DHT22;23682;53.508;10.476;2022-09-29T11:01:56;14.40;99.90
37842;DHT22;23682;53.508;10.476;2022-09-29T11:04:31;14.30;99.90
37842;DHT22;23682;53.508;10.476;2022-09-29T11:07:10;14.30;99.90
37842;DHT22;23682;53.508;10.476;2022-09-29T11:09:43;14.40;99.90
37842;DHT22;23682;53.508;10.476;2022-09-29T11:12:30;14.50;99.90
37842;DHT22;23682;53.508;10.476;2022-09-29T11:15:01;14.50;99.90
37842;DHT22;23682;53.508;10.476;2022-09-29T11:17:35;14.40;99.90
37842;DHT22;23682;53.508;10.476;2022-09-29T11:20:13;14.40;99.90
37842;DHT22;23682;53.508;10.476;2022-09-29T11:28:35;14.50;99.90
37842;DHT22;23682;53.508;10.476;2022-09-29T11:39:28;14.50;99.90
37842;DHT22;23682;53.508;10.476;2022-09-29T11:42:14;14.40;99.90
37842;DHT22;23682;53.508;10.476;2022-09-29T11:45:01;14.20;99.90
37842;DHT22;23682;53.508;10.476;2022-09-29T11:50:44;14.00;99.90
37842;DHT22;23682;53.508;10.476;2022-09-29T11:53:32;14.10;99.90
37842;DHT22;23682;53.508;10.476;2022-09-29T12:17:38;13.50;99.90
37842;DHT22;23682;53.508;10.476;2022-09-29T12:20:29;13.50;99.90
37842;DHT22;23682;53.508;10.476;2022-09-29T12:23:03;13.50;99.90
37842;DHT22;23682;53.508;10.476;2022-09-29T12:25:42;13.50;99.90
37842;DHT22;23682;53.508;10.476;2022-09-29T12:28:17;13.30;99.90
37842;DHT22;23682;53.508;10.476;2022-09-29T12:30:53;13.40;99.90
37842;DHT22;23682;53.508;10.476;2022-09-29T12:33:39;13.50;99.90
37842;DHT22;23682;53.508;10.476;2022-09-29T12:39:04;13.50;99.90
37842;DHT22;23682;53.508;10.476;2022-09-29T12:41:39;13.40;99.90
37842;DHT22;23682;53.508;10.476;2022-09-29T12:44:34;13.30;99.90
37842;DHT22;23682;53.508;10.476;2022-09-29T12:50:25;13.60;99.90
37842;DHT22;23682;53.508;10.476;2022-09-29T12:53:04;13.60;99.90
37842;DHT22;23682;53.508;10.476;2022-09-29T12:55:57;13.60;99.90
37842;DHT22;23682;53.508;10.476;2022-09-29T12:58:40;13.40;99.90
37842;DHT22;23682;53.508;10.476;2022-09-29T13:01:27;13.40;99.90
37842;DHT22;23682;53.508;10.476;2022-09-29T13:14:52;13.40;99.90
37842;DHT22;23682;53.508;10.476;2022-09-29T13:26:02;13.50;99.90
37842;DHT22;23682;53.508;10.476;2022-09-29T13:28:38;13.50;99.90
37842;DHT22;23682;53.508;10.476;2022-09-29T13:31:11;13.40;99.90
37842;DHT22;23682;53.508;10.476;2022-09-29T13:33:40;13.40;99.90
37842;DHT22;23682;53.508;10.476;2022-09-29T13:36:28;13.30;99.90
37842;DHT22;23682;53.508;10.476;2022-09-29T13:39:21;13.20;99.90
37842;DHT22;23682;53.508;10.476;2022-09-29T13:41:52;13.10;99.90
37842;DHT22;23682;53.508;10.476;2022-09-29T13:44:24;13.20;99.90
37842;DHT22;23682;53.508;10.476;2022-09-29T13:46:53;13.10;99.90
37842;DHT22;23682;53.508;10.476;2022-09-29T13:54:42;13.30;99.90
37842;DHT22;23682;53.508;10.476;2022-09-29T14:02:33;13.40;99.90
37842;DHT22;23682;53.508;10.476;2022-09-29T14:05:02;13.30;99.90
37842;DHT22;23682;53.508;10.476;2022-09-29T14:07:46;13.30;99.90
37842;DHT22;23682;53.508;10.476;2022-09-29T14:10:36;13.40;99.90
37842;DHT22;23682;53.508;10.476;2022-09-29T14:13:29;13.40;99.90
37842;DHT22;23682;53.508;10.476;2022-09-29T14:16:12;13.30;99.90
37842;DHT22;23682;53.508;10.476;2022-09-29T14:32:36;13.20;99.90
37842;DHT22;23682;53.508;10.476;2022-09-29T14:37:59;13.10;99.90
37842;DHT22;23682;53.508;10.476;2022-09-29T14:40:28;13.20;99.90
37842;DHT22;23682;53.508;10.476;2022-09-29T14:43:08;13.10;99.90
37842;DHT22;23682;53.508;10.476;2022-09-29T14:49:17;13.10;99.90
37842;DHT22;23682;53.508;10.476;2022-09-29T14:57:47;13.20;99.90
37842;DHT22;23682;53.508;10.476;2022-09-29T15:00:27;13.20;99.90
37842;DHT22;23682;53.508;10.476;2022-09-29T15:02:59;13.10;99.90
37842;DHT22;23682;53.508;10.476;2022-09-29T15:05:46;13.00;99.90
37842;DHT22;23682;53.508;10.476;2022-09-29T15:08:27;12.90;99.90
37842;DHT22;23682;53.508;10.476;2022-09-29T15:10:55;13.00;99.90
37842;DHT22;23682;53.508;10.476;2022-09-29T15:13:29;13.00;99.90
37842;DHT22;23682;53.508;10.476;2022-09-29T15:21:38;12.90;99.90
37842;DHT22;23682;53.508;10.476;2022-09-29T15:26:52;12.90;99.90
37842;DHT22;23682;53.508;10.476;2022-09-29T15:29:20;12.90;99.90
37842;DHT22;23682;53.508;10.476;2022-09-29T15:31:47;12.70;99.90
37842;DHT22;23682;53.508;10.476;2022-09-29T15:34:20;12.70;99.90
37842;DHT22;23682;53.508;10.476;2022-09-29T15:36:51;12.60;99.90
37842;DHT22;23682;53.508;10.476;2022-09-29T15:42:17;12.50;99.90
37842;DHT22;23682;53.508;10.476;2022-09-29T15:45:22;12.50;99.90
37842;DHT22;23682;53.508;10.476;2022-09-29T15:48:02;12.50;99.90
37842;DHT22;23682;53.508;10.476;2022-09-29T15:50:41;12.50;99.90
37842;DHT22;23682;53.508;10.476;2022-09-29T15:53:10;12.50;99.90
37842;DHT22;23682;53.508;10.476;2022-09-29T15:55:37;12.50;99.90
37842;DHT22;23682;53.508;10.476;2022-09-29T16:01:04;12.40;99.90
37842;DHT22;23682;53.508;10.476;2022-09-29T16:06:27;12.30;99.90
37842;DHT22;23682;53.508;10.476;2022-09-29T16:09:00;12.30;99.90
37842;DHT22;23682;53.508;10.476;2022-09-29T16:11:34;12.30;99.90
37842;DHT22;23682;53.508;10.476;2022-09-29T16:14:22;12.30;99.90
37842;DHT22;23682;53.508;10.476;2022-09-29T16:16:53;12.10;99.90
37842;DHT22;23682;53.508;10.476;2022-09-29T16:19:28;12.10;99.90
37842;DHT22;23682;53.508;10.476;2022-09-29T16:22:17;12.10;99.90
37842;DHT22;23682;53.508;10.476;2022-09-29T16:25:17;12.10;99.90
37842;DHT22;23682;53.508;10.476;2022-09-29T16:27:58;12.20;99.90
37842;DHT22;23682;53.508;10.476;2022-09-29T16:30:33;12.10;99.90
37842;DHT22;23682;53.508;10.476;2022-09-29T16:33:19;12.00;99.90
37842;DHT22;23682;53.508;10.476;2022-09-29T16:38:37;12.00;99.90
37842;DHT22;23682;53.508;10.476;2022-09-29T16:43:50;11.90;99.90
37842;DHT22;23682;53.508;10.476;2022-09-29T16:46:20;11.90;99.90
37842;DHT22;23682;53.508;10.476;2022-09-29T16:48:49;12.00;99.90
37842;DHT22;23682;53.508;10.476;2022-09-29T16:51:22;11.90;99.90
37842;DHT22;23682;53.508;10.476;2022-09-29T16:54:39;11.90;99.90
37842;DHT22;23682;53.508;10.476;2022-09-29T16:57:26;11.90;99.90
37842;DHT22;23682;53.508;10.476;2022-09-29T16:59:56;11.80;99.90
37842;DHT22;23682;53.508;10.476;2022-09-29T17:02:27;11.90;99.90
37842;DHT22;23682;53.508;10.476;2022-09-29T17:04:55;11.80;99.90
37842;DHT22;23682;53.508;10.476;2022-09-29T17:07:25;11.80;99.90
37842;DHT22;23682;53.508;10.476;2022-09-29T17:10:03;11.70;99.90
37842;DHT22;23682;53.508;10.476;2022-09-29T17:12:30;11.80;99.90
37842;DHT22;23682;53.508;10.476;2022-09-29T17:14:57;11.70;99.90
37842;DHT22;23682;53.508;10.476;2022-09-29T17:17:26;11.80;99.90
37842;DHT22;23682;53.508;10.476;2022-09-29T17:19:56;11.70;99.90
37842;DHT22;23682;53.508;10.476;2022-09-29T17:22:31;11.60;99.90
37842;DHT22;23682;53.508;10.476;2022-09-29T17:25:00;11.60;99.90
37842;DHT22;23682;53.508;10.476;2022-09-29T17:27:27;11.60;99.90
37842;DHT22;23682;53.508;10.476;2022-09-29T17:30:16;11.60;99.90
37842;DHT22;23682;53.508;10.476;2022-09-29T17:32:47;11.60;99.90
37842;DHT22;23682;53.508;10.476;2022-09-29T17:35:16;11.60;99.90
37842;DHT22;23682;53.508;10.476;2022-09-29T17:37:44;11.60;99.90
37842;DHT22;23682;53.508;10.476;2022-09-29T17:40:42;11.60;99.90
37842;DHT22;23682;53.508;10.476;2022-09-29T17:43:15;11.60;99.90
37842;DHT22;23682;53.508;10.476;2022-09-29T17:45:44;11.60;99.90
37842;DHT22;23682;53.508;10.476;2022-09-29T17:48:15;11.50;99.90
37842;DHT22;23682;53.508;10.476;2022-09-29T17:50:45;11.50;99.90
37842;DHT22;23682;53.508;10.476;2022-09-29T17:53:13;11.40;99.90
37842;DHT22;23682;53.508;10.476;2022-09-29T17:55:48;11.40;99.90
37842;DHT22;23682;53.508;10.476;2022-09-29T17:58:18;11.40;99.90
37842;DHT22;23682;53.508;10.476;2022-09-29T18:00:47;11.50;99.90
37842;DHT22;23682;53.508;10.476;2022-09-29T18:03:18;11.40;99.90
37842;DHT22;23682;53.508;10.476;2022-09-29T18:05:51;11.40;99.90
37842;DHT22;23682;53.508;10.476;2022-09-29T18:08:27;11.40;99.90
37842;DHT22;23682;53.508;10.476;2022-09-29T18:10:59;11.50;99.90
37842;DHT22;23682;53.508;10.476;2022-09-29T18:13:29;11.50;99.90
37842;DHT22;23682;53.508;10.476;2022-09-29T18:16:00;11.40;99.90
37842;DHT22;23682;53.508;10.476;2022-09-29T18:18:31;11.40;99.90
37842;DHT22;23682;53.508;10.476;2022-09-29T18:20:59;11.40;99.90
37842;DHT22;23682;53.508;10.476;2022-09-29T18:23:27;11.40;99.90
37842;DHT22;23682;53.508;10.476;2022-09-29T18:25:54;11.40;99.90
37842;DHT22;23682;53.508;10.476;2022-09-29T18:28:23;11.50;99.90
37842;DHT22;23682;53.508;10.476;2022-09-29T18:30:54;11.40;99.90
37842;DHT22;23682;53.508;10.476;2022-09-29T18:33:28;11.40;99.90
37842;DHT22;23682;53.508;10.476;2022-09-29T18:35:55;11.40;99.90
37842;DHT22;23682;53.508;10.476;2022-09-29T18:38:22;11.40;99.90
37842;DHT22;23682;53.508;10.476;2022-09-29T18:40:51;11.50;99.90
37842;DHT22;23682;53.508;10.476;2022-09-29T18:43:25;11.50;99.90
37842;DHT22;23682;53.508;10.476;2022-09-29T18:45:54;11.50;99.90
37842;DHT22;23682;53.508;10.476;2022-09-29T18:48:21;11.40;99.90
37842;DHT22;23682;53.508;10.476;2022-09-29T18:50:50;11.40;99.90
37842;DHT22;23682;53.508;10.476;2022-09-29T18:53:20;11.40;99.90
37842;DHT22;23682;53.508;10.476;2022-09-29T18:55:54;11.40;99.90
37842;DHT22;23682;53.508;10.476;2022-09-29T18:58:23;11.30;99.90
37842;DHT22;23682;53.508;10.476;2022-09-29T19:00:52;11.30;99.90
37842;DHT22;23682;53.508;10.476;2022-09-29T19:03:26;11.30;99.90
37842;DHT22;23682;53.508;10.476;2022-09-29T19:05:54;11.30;99.90